Time;durP1;ratioP1;P1;durP2;ratioP2;P2;SDS_P1;SDS_P2;PMS_P1;PMS_P2;Temp;Humidity;BMP_temperature;BMP_pressure;BME280_temperature;BME280_humidity;BME280_pressure;Samples;Min_cycle;Max_cycle;Signal;HPM_P1;HPM_P2
2021/03/08 00:01:44;;;;;;;24.13;15.07;;;6.80;65.60;;;;;;4976562;28;20046;-76
2021/03/08 00:04:10;;;;;;;20.63;14.98;;;6.80;65.80;;;;;;4976642;28;20074;-76
2021/03/08 00:06:35;;;;;;;21.08;15.55;;;6.70;65.90;;;;;;4977188;28;20066;-76
2021/03/08 00:09:01;;;;;;;20.45;15.10;;;6.80;66.00;;;;;;4975735;28;20436;-76
2021/03/08 00:11:27;;;;;;;25.45;15.52;;;6.70;66.00;;;;;;4976987;28;20038;-76
2021/03/08 00:13:53;;;;;;;23.52;15.32;;;6.70;66.30;;;;;;4977152;28;20069;-76
2021/03/08 00:16:19;;;;;;;26.35;16.10;;;6.60;66.30;;;;;;4977328;28;20039;-76
2021/03/08 00:18:45;;;;;;;24.17;16.00;;;6.60;66.50;;;;;;4977023;28;20117;-76
2021/03/08 00:21:11;;;;;;;25.60;15.82;;;6.60;66.50;;;;;;4974763;28;20055;-76
2021/03/08 00:23:36;;;;;;;23.88;15.32;;;6.60;66.70;;;;;;4976285;28;20589;-76
2021/03/08 00:26:02;;;;;;;26.42;16.67;;;6.50;66.70;;;;;;4976249;28;20062;-76
2021/03/08 00:28:28;;;;;;;23.10;15.55;;;6.50;67.00;;;;;;4976642;28;20045;-76
2021/03/08 00:30:54;;;;;;;23.70;15.52;;;6.50;67.10;;;;;;4975234;28;20069;-76
2021/03/08 00:33:20;;;;;;;26.88;16.67;;;6.50;67.30;;;;;;4974987;28;20034;-76
2021/03/08 00:35:46;;;;;;;26.52;16.73;;;6.50;67.40;;;;;;4975016;28;20487;-76
2021/03/08 00:38:11;;;;;;;23.35;16.05;;;6.40;67.40;;;;;;4974807;28;20491;-76
2021/03/08 00:40:37;;;;;;;22.40;15.65;;;6.40;67.70;;;;;;4975095;28;20039;-76
2021/03/08 00:43:03;;;;;;;24.88;16.10;;;6.40;67.90;;;;;;4974992;28;20625;-76
2021/03/08 00:45:29;;;;;;;25.33;17.05;;;6.40;68.00;;;;;;4974599;28;20043;-76
2021/03/08 00:47:55;;;;;;;27.27;16.50;;;6.30;68.00;;;;;;4976182;28;20594;-76
2021/03/08 00:50:25;;;;;;;23.13;16.33;;;6.30;68.20;;;;;;4976710;28;20499;-76
2021/03/08 00:52:51;;;;;;;25.35;16.90;;;6.30;68.20;;;;;;4975862;28;20050;-76
2021/03/08 00:55:16;;;;;;;25.90;17.17;;;6.30;68.30;;;;;;4976107;28;20125;-76
2021/03/08 00:57:43;;;;;;;26.00;16.80;;;6.30;68.20;;;;;;4976276;28;20133;-76
2021/03/08 01:00:11;;;;;;;26.23;17.30;;;6.30;68.40;;;;;;4975730;28;20050;-76
2021/03/08 01:02:38;;;;;;;26.45;17.77;;;6.30;68.40;;;;;;4975966;28;20086;-76
2021/03/08 01:05:05;;;;;;;24.13;16.50;;;6.30;68.40;;;;;;4975851;28;20046;-76
2021/03/08 01:07:31;;;;;;;24.65;16.50;;;6.30;68.40;;;;;;4975270;28;20125;-76
2021/03/08 01:09:57;;;;;;;32.92;16.85;;;6.20;68.50;;;;;;4974636;28;20038;-76
2021/03/08 01:12:23;;;;;;;24.50;16.33;;;6.20;68.50;;;;;;4974695;28;20038;-76
2021/03/08 01:14:49;;;;;;;25.15;16.90;;;6.30;68.60;;;;;;4990955;28;20404;-76
2021/03/08 01:17:15;;;;;;;26.85;16.52;;;6.20;68.70;;;;;;4974501;28;20046;-76
2021/03/08 01:19:41;;;;;;;23.42;16.58;;;6.20;68.80;;;;;;4974301;28;20057;-76
2021/03/08 01:22:07;;;;;;;26.02;17.13;;;6.20;68.70;;;;;;4975934;28;20038;-76
2021/03/08 01:24:33;;;;;;;22.65;16.30;;;6.20;68.70;;;;;;4974635;28;20042;-76
2021/03/08 01:26:58;;;;;;;25.90;16.77;;;6.20;68.50;;;;;;4974241;28;20039;-76
2021/03/08 01:29:24;;;;;;;28.33;17.60;;;6.20;68.60;;;;;;4974145;28;20031;-76
2021/03/08 01:31:50;;;;;;;26.65;17.17;;;6.20;68.70;;;;;;4975439;28;20074;-77
2021/03/08 01:34:16;;;;;;;26.00;17.17;;;6.20;68.70;;;;;;4975180;28;20054;-77
2021/03/08 01:36:42;;;;;;;24.58;16.65;;;6.10;68.80;;;;;;4975872;28;20470;-76
2021/03/08 01:39:08;;;;;;;23.88;16.08;;;6.10;69.00;;;;;;4975548;28;20590;-76
2021/03/08 01:41:34;;;;;;;26.20;17.30;;;6.10;69.00;;;;;;4974830;28;20412;-76
2021/03/08 01:43:59;;;;;;;25.83;16.52;;;6.10;69.00;;;;;;4974313;28;20072;-76
2021/03/08 01:46:25;;;;;;;26.60;16.58;;;6.10;69.00;;;;;;4990496;28;20492;-76
2021/03/08 01:48:52;;;;;;;24.48;17.00;;;6.10;69.00;;;;;;4973959;28;20041;-76
2021/03/08 01:51:19;;;;;;;25.00;17.30;;;6.00;69.00;;;;;;4974609;28;20373;-76
2021/03/08 01:53:45;;;;;;;29.40;17.55;;;6.00;69.50;;;;;;4974285;28;20046;-76
2021/03/08 01:56:11;;;;;;;27.15;17.95;;;5.90;69.70;;;;;;4974365;28;20047;-76
2021/03/08 01:58:39;;;;;;;23.52;16.95;;;5.90;69.90;;;;;;4978986;28;20381;-76
2021/03/08 02:01:06;;;;;;;24.92;17.40;;;5.90;69.70;;;;;;4979099;28;20458;-75
2021/03/08 02:03:31;;;;;;;25.67;17.52;;;5.90;69.60;;;;;;4994259;28;20089;-76
2021/03/08 02:05:57;;;;;;;28.60;18.17;;;5.90;69.40;;;;;;4977885;28;20492;-76
2021/03/08 02:08:25;;;;;;;24.60;16.88;;;6.00;69.40;;;;;;4978512;28;20031;-76
2021/03/08 02:10:51;;;;;;;26.08;17.98;;;6.00;69.30;;;;;;4977749;28;20065;-76
2021/03/08 02:13:38;;;;;;;27.05;18.10;;;6.00;69.40;;;;;;4978860;28;20042;-76
2021/03/08 02:16:28;;;;;;;24.45;17.02;;;5.90;69.60;;;;;;4993378;28;20038;-76
2021/03/08 02:19:28;;;;;;;23.63;16.95;;;5.90;69.80;;;;;;4977331;28;20039;-76
2021/03/08 02:22:28;;;;;;;26.88;16.65;;;5.80;69.80;;;;;;4978755;28;20043;-76
2021/03/08 02:25:12;;;;;;;26.75;18.73;;;5.80;70.00;;;;;;4977506;28;20520;-76
2021/03/08 02:27:41;;;;;;;27.30;18.52;;;5.80;70.00;;;;;;4977266;28;20041;-76
2021/03/08 02:30:28;;;;;;;25.77;17.48;;;5.70;69.90;;;;;;4978726;28;20038;-76
2021/03/08 02:32:55;;;;;;;27.67;17.90;;;5.70;69.70;;;;;;4977403;28;20034;-76
2021/03/08 02:35:25;;;;;;;25.45;17.15;;;5.70;69.70;;;;;;4979011;28;20403;-75
2021/03/08 02:37:54;;;;;;;26.45;17.50;;;5.70;69.70;;;;;;4978593;28;20034;-76
2021/03/08 02:40:26;;;;;;;29.75;18.45;;;5.60;69.70;;;;;;4978468;28;20043;-76
2021/03/08 02:42:55;;;;;;;25.95;17.92;;;5.60;69.30;;;;;;4977050;28;20034;-76
2021/03/08 02:45:24;;;;;;;26.38;18.52;;;5.60;69.10;;;;;;4978306;28;20068;-76
2021/03/08 02:47:51;;;;;;;25.98;18.48;;;5.70;68.90;;;;;;4978231;28;20042;-76
2021/03/08 02:50:19;;;;;;;27.08;17.80;;;5.70;68.70;;;;;;4978255;28;20137;-76
2021/03/08 02:52:56;;;;;;;27.20;17.63;;;5.70;68.50;;;;;;4978050;28;20093;-76
2021/03/08 02:55:26;;;;;;;27.88;19.23;;;5.70;68.30;;;;;;4978534;28;20134;-76
2021/03/08 02:57:53;;;;;;;26.38;18.48;;;5.70;68.60;;;;;;4978494;28;20046;-76
2021/03/08 03:00:20;;;;;;;28.10;18.65;;;5.70;68.20;;;;;;4976612;28;20039;-76
2021/03/08 03:02:47;;;;;;;24.52;17.55;;;5.70;67.90;;;;;;4977607;28;20122;-76
2021/03/08 03:05:15;;;;;;;31.00;18.92;;;5.70;67.70;;;;;;4976746;28;20080;-76
2021/03/08 03:07:48;;;;;;;29.05;18.13;;;5.70;67.10;;;;;;4978034;28;20487;-76
2021/03/08 03:10:15;;;;;;;25.92;18.00;;;5.70;67.00;;;;;;4978009;28;20101;-76
2021/03/08 03:12:42;;;;;;;26.23;18.08;;;5.60;66.60;;;;;;4977662;28;20031;-76
2021/03/08 03:15:10;;;;;;;28.52;17.40;;;5.70;66.50;;;;;;4977691;28;20046;-76
2021/03/08 03:17:37;;;;;;;26.52;17.70;;;5.70;66.20;;;;;;4977415;28;20039;-76
2021/03/08 03:20:07;;;;;;;26.02;17.77;;;5.60;66.00;;;;;;4976283;28;20109;-76
2021/03/08 03:22:34;;;;;;;26.05;18.13;;;5.70;65.60;;;;;;4976564;28;20084;-76
2021/03/08 03:25:00;;;;;;;30.60;17.77;;;5.60;65.60;;;;;;4977595;28;20054;-76
2021/03/08 03:27:28;;;;;;;26.10;17.00;;;5.60;65.90;;;;;;4977393;28;20043;-76
2021/03/08 03:29:55;;;;;;;25.45;17.98;;;5.60;65.70;;;;;;4977332;28;20094;-76
2021/03/08 03:32:21;;;;;;;28.73;18.77;;;5.60;65.60;;;;;;4975926;28;20038;-76
2021/03/08 03:34:48;;;;;;;28.02;18.15;;;5.60;65.70;;;;;;4977786;28;20047;-76
2021/03/08 03:37:19;;;;;;;25.63;17.90;;;5.60;66.20;;;;;;4977203;28;20042;-76
2021/03/08 03:39:46;;;;;;;27.75;18.60;;;5.50;66.10;;;;;;4977132;28;20074;-76
2021/03/08 03:42:12;;;;;;;27.40;17.98;;;5.50;66.10;;;;;;4977609;28;20122;-76
2021/03/08 03:44:37;;;;;;;26.05;18.15;;;5.50;66.50;;;;;;4977228;28;20130;-76
2021/03/08 03:47:03;;;;;;;31.73;19.38;;;5.40;66.90;;;;;;4978322;28;20089;-76
2021/03/08 03:49:29;;;;;;;27.92;18.52;;;5.40;67.70;;;;;;4976794;28;20507;-76
2021/03/08 03:51:56;;;;;;;28.40;19.63;;;5.30;68.00;;;;;;4975933;28;20069;-76
2021/03/08 03:54:21;;;;;;;24.88;17.58;;;5.30;67.90;;;;;;4976872;28;20046;-76
2021/03/08 03:56:52;;;;;;;26.73;18.38;;;5.20;67.80;;;;;;4976833;28;20142;-76
2021/03/08 03:59:24;;;;;;;28.08;18.20;;;5.20;68.30;;;;;;4976877;28;20070;-76
2021/03/08 04:02:02;;;;;;;25.25;17.58;;;5.10;68.20;;;;;;4976942;28;20046;-76
2021/03/08 04:04:34;;;;;;;30.30;18.90;;;5.00;68.40;;;;;;4976401;28;20134;-76
2021/03/08 04:07:03;;;;;;;28.33;19.02;;;5.00;68.40;;;;;;4975974;28;20030;-76
2021/03/08 04:09:30;;;;;;;26.90;18.08;;;5.10;68.20;;;;;;4976598;28;20042;-76
2021/03/08 04:11:58;;;;;;;25.05;18.30;;;5.00;68.30;;;;;;4976632;28;20031;-76
2021/03/08 04:14:25;;;;;;;27.08;19.05;;;5.00;68.10;;;;;;4976501;28;20050;-77
2021/03/08 04:16:56;;;;;;;28.20;19.20;;;5.00;68.00;;;;;;4975224;28;20066;-77
2021/03/08 04:19:26;;;;;;;26.95;18.20;;;5.00;67.90;;;;;;4974057;28;20054;-77
2021/03/08 04:21:57;;;;;;;26.05;18.92;;;5.00;67.80;;;;;;4976454;28;20038;-76
2021/03/08 04:24:24;;;;;;;26.38;19.02;;;4.90;68.00;;;;;;4976354;28;20072;-76
2021/03/08 04:26:51;;;;;;;27.85;18.08;;;4.90;68.10;;;;;;4975632;28;20089;-76
2021/03/08 04:29:18;;;;;;;29.35;19.77;;;4.90;67.90;;;;;;4974960;28;20046;-76
2021/03/08 04:31:45;;;;;;;25.23;17.63;;;4.90;67.70;;;;;;4976233;28;20053;-76
2021/03/08 04:34:11;;;;;;;27.23;19.33;;;4.90;68.30;;;;;;4975967;28;20042;-76
2021/03/08 04:36:39;;;;;;;31.90;18.77;;;4.80;68.00;;;;;;4976172;28;20507;-76
2021/03/08 04:39:06;;;;;;;25.63;19.02;;;4.80;68.00;;;;;;4974910;28;20051;-77
2021/03/08 04:41:32;;;;;;;26.17;18.55;;;4.80;67.80;;;;;;4976190;28;20043;-77
2021/03/08 04:43:59;;;;;;;27.27;18.85;;;4.80;67.80;;;;;;4974853;28;20048;-77
2021/03/08 04:46:26;;;;;;;25.35;18.35;;;4.80;67.90;;;;;;4976150;28;20063;-77
2021/03/08 04:48:53;;;;;;;24.40;18.13;;;4.80;67.80;;;;;;4975754;28;20070;-77
2021/03/08 04:51:19;;;;;;;27.85;18.20;;;4.80;67.60;;;;;;4974988;28;20077;-77
2021/03/08 04:53:46;;;;;;;24.70;17.55;;;4.70;67.70;;;;;;4978063;28;20101;-76
2021/03/08 04:56:14;;;;;;;26.70;18.55;;;4.80;67.50;;;;;;4977045;28;20035;-77
2021/03/08 04:58:39;;;;;;;28.35;18.25;;;4.80;67.20;;;;;;4976664;28;20089;-77
2021/03/08 05:01:07;;;;;;;25.83;17.77;;;4.70;67.10;;;;;;4976242;28;20027;-77
2021/03/08 05:03:36;;;;;;;25.23;18.00;;;4.70;66.80;;;;;;4975578;28;20046;-77
2021/03/08 05:06:04;;;;;;;29.88;18.10;;;4.80;66.60;;;;;;4975696;28;20027;-77
2021/03/08 05:08:31;;;;;;;25.55;17.80;;;4.80;66.10;;;;;;4974182;28;20409;-77
2021/03/08 05:11:00;;;;;;;24.52;17.20;;;4.90;65.40;;;;;;4975845;28;20519;-77
2021/03/08 05:13:30;;;;;;;25.58;18.05;;;4.80;65.60;;;;;;4975830;28;20050;-77
2021/03/08 05:16:00;;;;;;;26.50;18.83;;;4.80;65.50;;;;;;4975868;28;20061;-76
2021/03/08 05:18:28;;;;;;;24.90;18.75;;;4.80;65.40;;;;;;4974145;28;20035;-77
2021/03/08 05:20:55;;;;;;;26.90;18.48;;;4.80;65.70;;;;;;4975177;28;20231;-76
2021/03/08 05:23:22;;;;;;;24.95;18.13;;;4.80;65.40;;;;;;4975756;28;20039;-77
2021/03/08 05:25:48;;;;;;;26.95;19.33;;;4.70;65.90;;;;;;4975389;28;20047;-77
2021/03/08 05:28:15;;;;;;;27.50;19.40;;;4.70;66.50;;;;;;4975777;28;20046;-77
2021/03/08 05:30:41;;;;;;;25.80;18.83;;;4.60;67.20;;;;;;4974266;28;20047;-77
2021/03/08 05:33:18;;;;;;;25.73;18.58;;;4.50;67.70;;;;;;4978051;28;20042;-77
2021/03/08 05:35:46;;;;;;;27.90;19.52;;;4.40;68.10;;;;;;4980051;28;20129;-77
2021/03/08 05:38:15;;;;;;;29.77;19.25;;;4.30;69.50;;;;;;4979318;28;20035;-76
2021/03/08 05:40:44;;;;;;;25.92;18.75;;;4.20;68.60;;;;;;4979058;28;20042;-76
2021/03/08 05:43:13;;;;;;;26.17;18.95;;;4.20;68.80;;;;;;4980459;28;20038;-76
2021/03/08 05:46:04;;;;;;;25.23;18.52;;;4.10;68.40;;;;;;4979084;28;20050;-76
2021/03/08 05:48:51;;;;;;;31.75;20.48;;;4.10;68.80;;;;;;4969324;28;20042;-76
2021/03/08 05:52:01;;;;;;;27.25;19.35;;;4.10;69.00;;;;;;4978507;28;20129;-76
2021/03/08 05:54:47;;;;;;;31.02;19.58;;;4.00;68.90;;;;;;4977746;28;20051;-76
2021/03/08 05:57:42;;;;;;;27.60;19.83;;;4.00;68.80;;;;;;4977675;28;20049;-76
2021/03/08 06:00:47;;;;;;;28.98;19.98;;;4.00;68.80;;;;;;4979121;28;20054;-76
2021/03/08 06:03:40;;;;;;;28.52;19.67;;;4.00;69.00;;;;;;4968248;28;20042;-76
2021/03/08 06:06:35;;;;;;;26.17;18.45;;;3.90;69.30;;;;;;4978664;28;20075;-76
2021/03/08 06:09:20;;;;;;;;;;;3.80;69.30;;;;;;4962593;29;20074;-76
2021/03/08 06:11:57;;;;;;;29.05;20.38;;;3.80;69.50;;;;;;4974994;28;19913;-76
2021/03/08 06:14:32;;;;;;;25.80;18.83;;;3.70;69.70;;;;;;4977682;28;20089;-75
2021/03/08 06:17:00;;;;;;;28.33;19.55;;;3.70;69.30;;;;;;4978603;28;20047;-75
2021/03/08 06:19:27;;;;;;;28.85;19.73;;;3.70;69.10;;;;;;4977048;28;20093;-76
2021/03/08 06:21:53;;;;;;;27.17;19.05;;;3.70;69.00;;;;;;4979075;28;20510;-76
2021/03/08 06:24:20;;;;;;;31.35;20.42;;;3.70;69.20;;;;;;4978139;28;20507;-76
2021/03/08 06:26:47;;;;;;;28.40;19.85;;;3.60;69.10;;;;;;4978370;28;20061;-75
2021/03/08 06:29:13;;;;;;;29.63;20.17;;;3.60;69.10;;;;;;4978299;28;20035;-75
2021/03/08 06:31:42;;;;;;;29.33;20.75;;;3.50;69.30;;;;;;4977804;28;20050;-78
2021/03/08 06:34:08;;;;;;;33.85;21.42;;;3.60;69.20;;;;;;4978709;28;20495;-75
2021/03/08 06:36:36;;;;;;;31.02;21.23;;;3.50;69.10;;;;;;4977163;28;20049;-75
2021/03/08 06:39:02;;;;;;;29.80;21.02;;;3.50;69.00;;;;;;4980258;28;20045;-74
2021/03/08 06:41:29;;;;;;;31.85;21.60;;;3.50;68.90;;;;;;4977887;28;20035;-75
2021/03/08 06:43:54;;;;;;;34.05;22.90;;;3.50;69.00;;;;;;4977289;28;20061;-74
2021/03/08 06:46:20;;;;;;;31.35;21.00;;;3.50;69.10;;;;;;4978547;28;20035;-74
2021/03/08 06:48:46;;;;;;;32.33;21.63;;;3.50;69.00;;;;;;4977876;28;20042;-74
2021/03/08 06:51:17;;;;;;;29.92;21.48;;;3.50;69.00;;;;;;4976864;28;20035;-74
2021/03/08 06:53:45;;;;;;;29.15;21.35;;;3.50;68.90;;;;;;4978063;28;20121;-74
2021/03/08 06:56:24;;;;;;;39.13;22.50;;;3.50;68.80;;;;;;4978148;28;20049;-74
2021/03/08 06:59:03;;;;;;;31.02;22.13;;;3.50;69.00;;;;;;4976459;28;20108;-74
2021/03/08 07:01:31;;;;;;;35.58;22.95;;;3.50;68.50;;;;;;4977995;28;20045;-74
2021/03/08 07:04:00;;;;;;;32.78;23.20;;;3.50;68.50;;;;;;4977429;28;20038;-73
2021/03/08 07:06:27;;;;;;;38.30;22.73;;;3.50;68.90;;;;;;4977615;28;20033;-74
2021/03/08 07:09:13;;;;;;;36.90;23.70;;;3.60;68.70;;;;;;4977745;28;20038;-79
2021/03/08 07:11:39;;;;;;;31.92;22.48;;;3.60;68.40;;;;;;4977827;28;20038;-73
2021/03/08 07:14:19;;;;;;;32.67;22.75;;;3.50;68.50;;;;;;4977504;28;20039;-73
2021/03/08 07:16:45;;;;;;;32.92;22.92;;;3.50;68.40;;;;;;4977745;28;20069;-73
2021/03/08 07:19:11;;;;;;;34.25;23.75;;;3.50;68.30;;;;;;4977881;28;20484;-82
2021/03/08 07:21:37;;;;;;;34.80;23.08;;;3.60;68.20;;;;;;4977705;28;20045;-80
2021/03/08 07:24:14;;;;;;;31.02;23.35;;;3.50;68.40;;;;;;4977520;28;20096;-74
2021/03/08 07:27:00;;;;;;;32.60;21.92;;;3.50;68.70;;;;;;4977676;28;20050;-74
2021/03/08 07:29:25;;;;;;;31.60;24.15;;;3.50;69.00;;;;;;4977512;28;20480;-74
2021/03/08 07:31:54;;;;;;;33.38;23.85;;;3.50;68.60;;;;;;4977306;28;20134;-75
2021/03/08 07:34:20;;;;;;;37.67;25.35;;;3.60;68.60;;;;;;4977135;28;20039;-73
2021/03/08 07:37:01;;;;;;;32.30;23.02;;;3.70;68.40;;;;;;4976396;28;20078;-73
2021/03/08 07:39:27;;;;;;;35.42;25.10;;;3.70;68.20;;;;;;4977203;28;20079;-73
2021/03/08 07:41:56;;;;;;;36.85;25.55;;;3.70;68.30;;;;;;4977225;28;20627;-72
2021/03/08 07:44:24;;;;;;;37.38;25.52;;;3.90;68.10;;;;;;4976130;28;20042;-73
2021/03/08 07:46:51;;;;;;;32.20;23.48;;;4.00;67.80;;;;;;4976035;28;20041;-73
2021/03/08 07:49:30;;;;;;;36.28;24.85;;;4.00;67.50;;;;;;4977023;28;20043;-73
2021/03/08 07:52:07;;;;;;;35.30;25.55;;;4.00;67.70;;;;;;4975599;28;20039;-75
2021/03/08 07:54:51;;;;;;;38.15;26.15;;;4.00;67.40;;;;;;4974445;28;20174;-74
2021/03/08 07:57:18;;;;;;;34.58;25.52;;;4.10;67.20;;;;;;4977340;28;20043;-74
2021/03/08 07:59:44;;;;;;;37.65;25.58;;;4.20;66.90;;;;;;4976774;28;20031;-74
2021/03/08 08:02:10;;;;;;;37.35;25.52;;;4.30;66.80;;;;;;4976779;28;20412;-74
2021/03/08 08:04:36;;;;;;;33.92;24.73;;;4.40;66.90;;;;;;4976734;28;20043;-74
2021/03/08 08:07:13;;;;;;;39.30;27.52;;;4.50;65.90;;;;;;4976804;28;20403;-74
2021/03/08 08:09:43;;;;;;;36.55;25.65;;;4.50;65.80;;;;;;4976834;28;20042;-73
2021/03/08 08:12:17;;;;;;;37.67;25.75;;;4.50;65.90;;;;;;4977303;28;20093;-74
2021/03/08 08:14:44;;;;;;;37.08;26.67;;;4.60;65.80;;;;;;4976751;28;20034;-74
2021/03/08 08:17:15;;;;;;;39.30;27.70;;;4.60;65.70;;;;;;4976774;28;20051;-74
2021/03/08 08:19:45;;;;;;;36.83;25.65;;;4.70;65.50;;;;;;4976445;28;20507;-74
2021/03/08 08:22:21;;;;;;;34.55;26.00;;;4.80;65.40;;;;;;4976542;28;20043;-73
2021/03/08 08:24:52;;;;;;;37.30;25.88;;;4.90;65.20;;;;;;4975044;28;20038;-74
2021/03/08 08:27:20;;;;;;;37.72;26.00;;;5.00;64.80;;;;;;4976407;28;20038;-74
2021/03/08 08:29:50;;;;;;;35.33;24.80;;;5.10;64.40;;;;;;4976457;28;20043;-74
2021/03/08 08:32:16;;;;;;;38.20;26.95;;;5.30;64.10;;;;;;4976241;28;20042;-73
2021/03/08 08:34:44;;;;;;;36.80;25.77;;;5.30;64.00;;;;;;4975088;28;20031;-74
2021/03/08 08:37:19;;;;;;;36.25;25.58;;;5.40;63.80;;;;;;4975532;28;20038;-74
2021/03/08 08:39:51;;;;;;;36.88;25.83;;;5.40;63.80;;;;;;4976214;28;20116;-74
2021/03/08 08:42:22;;;;;;;34.88;26.10;;;5.50;63.30;;;;;;4975159;28;20141;-74
2021/03/08 08:44:49;;;;;;;35.05;25.83;;;5.60;63.40;;;;;;4974734;28;20038;-73
2021/03/08 08:47:19;;;;;;;33.70;24.95;;;5.70;63.10;;;;;;4974755;28;20047;-74
2021/03/08 08:49:50;;;;;;;37.17;25.98;;;5.80;62.30;;;;;;4975900;28;20050;-74
2021/03/08 08:52:37;;;;;;;36.55;26.48;;;5.80;62.30;;;;;;4974371;28;20094;-75
2021/03/08 08:55:07;;;;;;;37.28;26.20;;;6.00;62.50;;;;;;4976096;28;20047;-74
2021/03/08 08:57:32;;;;;;;34.00;25.73;;;6.00;61.90;;;;;;4974288;28;20053;-74
2021/03/08 09:00:20;;;;;;;38.05;24.92;;;6.10;61.60;;;;;;4975739;28;20042;-73
2021/03/08 09:02:46;;;;;;;37.10;26.40;;;6.30;61.40;;;;;;4975779;28;20159;-74
2021/03/08 09:05:27;;;;;;;34.67;25.17;;;6.50;60.70;;;;;;4975899;28;20121;-74
2021/03/08 09:08:25;;;;;;;34.17;24.90;;;6.60;60.10;;;;;;4976186;28;20043;-74
2021/03/08 09:10:51;;;;;;;35.15;25.70;;;6.70;59.50;;;;;;4974381;28;20361;-74
2021/03/08 09:13:17;;;;;;;34.72;25.40;;;6.70;60.00;;;;;;4975711;28;20456;-74
2021/03/08 09:15:43;;;;;;;34.05;25.15;;;6.80;59.90;;;;;;4975664;28;20038;-74
2021/03/08 09:18:09;;;;;;;35.28;25.55;;;7.10;59.40;;;;;;4975516;28;20065;-74
2021/03/08 09:20:36;;;;;;;35.20;26.33;;;7.30;59.10;;;;;;4975142;28;20043;-74
2021/03/08 09:23:04;;;;;;;36.17;26.52;;;7.50;58.70;;;;;;4975627;28;20046;-74
2021/03/08 09:25:34;;;;;;;36.50;24.90;;;7.60;58.10;;;;;;4975438;28;20058;-74
2021/03/08 09:28:08;;;;;;;35.28;24.67;;;7.70;57.20;;;;;;4975342;28;20046;-74
2021/03/08 09:30:43;;;;;;;29.40;19.80;;;7.70;57.20;;;;;;4975375;28;20039;-74
2021/03/08 09:33:13;;;;;;;32.63;25.08;;;7.60;56.80;;;;;;4977223;28;20042;-74
2021/03/08 09:35:47;;;;;;;32.70;24.77;;;7.70;56.90;;;;;;4982838;28;20098;-73
2021/03/08 09:38:18;;;;;;;32.53;23.95;;;7.80;56.60;;;;;;4978165;28;20039;-74
2021/03/08 09:40:52;;;;;;;38.13;24.95;;;7.80;56.10;;;;;;4977077;28;20137;-74
2021/03/08 09:43:30;;;;;;;34.17;24.90;;;8.00;55.90;;;;;;4975696;28;20078;-74
2021/03/08 09:46:07;;;;;;;35.42;25.50;;;8.20;55.90;;;;;;4974791;28;20043;-74
2021/03/08 09:48:37;;;;;;;33.65;26.02;;;8.30;56.10;;;;;;4975178;28;20527;-74
2021/03/08 09:51:03;;;;;;;30.55;24.45;;;8.30;55.30;;;;;;4975123;28;20034;-74
2021/03/08 09:53:38;;;;;;;33.60;25.63;;;8.40;55.20;;;;;;4974974;28;20115;-74
2021/03/08 09:56:06;;;;;;;33.97;25.25;;;8.40;55.50;;;;;;4975199;28;20043;-76
2021/03/08 09:58:32;;;;;;;34.45;24.73;;;8.50;55.20;;;;;;4974719;28;20527;-74
2021/03/08 10:00:59;;;;;;;35.38;25.17;;;8.70;54.60;;;;;;4975528;28;20042;-74
2021/03/08 10:03:25;;;;;;;33.15;24.58;;;8.80;54.60;;;;;;4974963;28;20513;-74
2021/03/08 10:05:54;;;;;;;30.48;24.42;;;8.70;54.30;;;;;;4974992;28;20113;-74
2021/03/08 10:08:29;;;;;;;36.60;24.50;;;8.70;53.80;;;;;;4975049;28;20066;-74
2021/03/08 10:10:55;;;;;;;38.65;25.90;;;8.70;54.10;;;;;;4974950;28;20038;-74
2021/03/08 10:13:22;;;;;;;35.63;24.85;;;8.90;54.00;;;;;;4974945;28;20053;-74
2021/03/08 10:15:56;;;;;;;33.55;25.05;;;9.20;52.50;;;;;;4975358;28;20070;-74
2021/03/08 10:18:26;;;;;;;35.65;24.77;;;9.30;52.40;;;;;;4976280;28;20042;-74
2021/03/08 10:20:57;;;;;;;32.08;24.02;;;9.40;52.20;;;;;;4978529;28;20055;-74
2021/03/08 10:23:29;;;;;;;34.75;24.63;;;9.60;51.70;;;;;;4978374;28;20074;-74
2021/03/08 10:26:16;;;;;;;29.45;22.58;;;9.60;51.40;;;;;;4978531;28;20451;-74
2021/03/08 10:28:45;;;;;;;28.63;22.70;;;9.70;49.80;;;;;;4978679;28;20073;-74
2021/03/08 10:31:24;;;;;;;30.42;23.10;;;9.70;50.00;;;;;;4978476;28;20035;-74
2021/03/08 10:33:51;;;;;;;34.67;22.77;;;10.00;50.20;;;;;;4978692;28;20126;-74
2021/03/08 10:36:25;;;;;;;33.20;23.08;;;10.10;49.00;;;;;;4977081;28;20086;-74
2021/03/08 10:38:55;;;;;;;34.97;24.20;;;10.20;49.50;;;;;;4978203;28;20046;-74
2021/03/08 10:41:23;;;;;;;28.30;21.38;;;10.40;48.00;;;;;;4978193;28;20357;-74
2021/03/08 10:43:50;;;;;;;31.52;21.83;;;10.30;48.10;;;;;;4978175;28;20047;-74
2021/03/08 10:46:17;;;;;;;26.92;21.02;;;10.30;47.70;;;;;;4978063;28;20069;-74
2021/03/08 10:49:01;;;;;;;32.33;22.70;;;10.50;47.20;;;;;;4977602;28;20122;-74
2021/03/08 10:51:28;;;;;;;43.63;26.73;;;10.70;47.00;;;;;;4978142;28;20112;-74
2021/03/08 10:53:58;;;;;;;27.95;22.67;;;10.80;47.20;;;;;;4978179;28;20046;-75
2021/03/08 10:56:28;;;;;;;32.35;21.75;;;10.90;46.80;;;;;;4978434;28;20549;-74
2021/03/08 10:58:56;;;;;;;27.20;21.60;;;11.00;47.20;;;;;;4977916;28;20058;-74
2021/03/08 11:01:29;;;;;;;30.08;22.23;;;10.90;46.10;;;;;;4976511;28;20038;-74
2021/03/08 11:03:56;;;;;;;30.05;22.08;;;10.90;45.80;;;;;;4977659;28;20411;-74
2021/03/08 11:06:23;;;;;;;30.08;23.23;;;10.80;46.20;;;;;;4977690;28;20038;-74
2021/03/08 11:09:05;;;;;;;39.65;23.75;;;10.90;47.00;;;;;;4977835;28;20133;-74
2021/03/08 11:11:33;;;;;;;35.15;24.05;;;11.30;45.40;;;;;;4977877;28;20039;-74
2021/03/08 11:14:04;;;;;;;44.40;28.65;;;11.20;45.20;;;;;;4977566;28;20038;-74
2021/03/08 11:16:32;;;;;;;27.83;21.77;;;11.20;45.80;;;;;;4977412;28;20039;-74
2021/03/08 11:19:17;;;;;;;26.33;20.83;;;11.30;44.80;;;;;;4977524;28;20491;-75
2021/03/08 11:21:44;;;;;;;25.23;20.42;;;11.60;44.30;;;;;;4977997;28;20520;-74
2021/03/08 11:24:19;;;;;;;36.83;24.50;;;11.70;44.00;;;;;;4977294;28;20396;-73
2021/03/08 11:27:27;;;;;;;40.53;26.08;;;11.80;43.20;;;;;;4992890;28;20511;-74
2021/03/08 11:30:09;;;;;;;29.88;20.75;;;11.70;43.30;;;;;;4992520;28;20049;-74
2021/03/08 11:32:40;;;;;;;45.55;29.35;;;11.70;43.30;;;;;;4997114;28;20534;-74
2021/03/08 11:35:14;;;;;;;35.70;25.27;;;11.80;42.90;;;;;;4996489;28;20046;-74
2021/03/08 11:37:50;;;;;;;33.35;22.73;;;11.70;43.50;;;;;;4992654;28;20069;-74
2021/03/08 11:40:18;;;;;;;38.63;24.13;;;11.80;42.80;;;;;;4977091;28;20369;-74
2021/03/08 11:42:44;;;;;;;49.85;29.15;;;11.80;42.70;;;;;;4976980;28;20519;-74
2021/03/08 11:45:11;;;;;;;43.25;27.08;;;11.70;43.00;;;;;;4976798;28;20039;-73
2021/03/08 11:47:37;;;;;;;31.48;22.08;;;11.80;43.20;;;;;;4976953;28;20558;-74
2021/03/08 11:50:04;;;;;;;30.60;21.02;;;11.90;42.90;;;;;;4976749;28;20027;-74
2021/03/08 11:52:30;;;;;;;28.58;20.40;;;12.00;42.40;;;;;;4976688;28;20523;-78
2021/03/08 11:54:56;;;;;;;32.72;21.77;;;12.10;41.80;;;;;;4976421;28;20038;-74
2021/03/08 11:57:22;;;;;;;31.60;21.65;;;12.20;41.70;;;;;;4976982;28;20097;-74
2021/03/08 11:59:48;;;;;;;28.45;20.60;;;12.20;41.50;;;;;;4976766;28;20043;-78
2021/03/08 12:02:14;;;;;;;27.45;20.27;;;12.10;41.70;;;;;;4976640;28;20122;-74
2021/03/08 12:04:39;;;;;;;26.17;21.77;;;12.30;41.90;;;;;;4976768;28;20105;-74
2021/03/08 12:07:05;;;;;;;31.80;23.48;;;12.60;41.90;;;;;;4977214;28;20499;-74
2021/03/08 12:09:33;;;;;;;35.72;22.88;;;13.20;40.80;;;;;;4976621;28;20039;-74
2021/03/08 12:12:00;;;;;;;52.45;24.25;;;13.20;40.00;;;;;;4976469;28;20085;-74
2021/03/08 12:14:26;;;;;;;35.97;22.55;;;13.10;39.90;;;;;;4976449;28;20125;-74
2021/03/08 12:16:52;;;;;;;27.85;20.52;;;12.90;40.40;;;;;;4976465;28;20071;-75
2021/03/08 12:19:18;;;;;;;30.95;22.17;;;12.90;40.80;;;;;;4976379;28;20039;-74
2021/03/08 12:21:50;;;;;;;27.35;22.02;;;12.80;41.00;;;;;;4975030;28;20401;-74
2021/03/08 12:24:16;;;;;;;29.42;21.77;;;12.70;41.30;;;;;;4976548;28;20062;-77
2021/03/08 12:26:42;;;;;;;34.17;22.55;;;12.50;41.90;;;;;;4977605;28;20031;-74
2021/03/08 12:29:08;;;;;;;30.73;22.30;;;12.50;41.90;;;;;;4988959;28;20586;-75
2021/03/08 12:31:34;;;;;;;29.60;22.85;;;12.70;41.40;;;;;;4991198;28;20035;-75
2021/03/08 12:33:59;;;;;;;37.50;23.23;;;12.70;41.40;;;;;;4990562;28;20038;-74
2021/03/08 12:36:25;;;;;;;41.38;23.33;;;12.80;40.40;;;;;;4990738;28;20058;-75
2021/03/08 12:38:51;;;;;;;32.00;22.38;;;12.70;40.30;;;;;;4987471;28;20043;-75
2021/03/08 12:41:17;;;;;;;29.05;21.90;;;12.70;41.20;;;;;;4986023;28;20035;-75
2021/03/08 12:43:43;;;;;;;28.23;22.25;;;12.90;40.90;;;;;;4989804;28;20125;-74
2021/03/08 12:46:09;;;;;;;25.92;21.75;;;12.90;40.70;;;;;;4990960;28;20042;-75
2021/03/08 12:48:35;;;;;;;27.92;22.42;;;12.90;41.00;;;;;;4990848;28;20070;-75
2021/03/08 12:51:01;;;;;;;31.58;22.05;;;12.80;41.00;;;;;;4991725;28;20069;-75